Time;durP1;ratioP1;P1;durP2;ratioP2;P2;SDS_P1;SDS_P2;PMS_P1;PMS_P2;Temp;Humidity;BMP_temperature;BMP_pressure;BME280_temperature;BME280_humidity;BME280_pressure;Samples;Min_cycle;Max_cycle;Signal;HPM_P1;HPM_P2
2023/01/06 00:02:04;;;;;;;;;;;10.20;99.90;;;;;;5009108;28;19933;-80
2023/01/06 00:04:30;;;;;;;;;;;10.20;99.90;;;;;;5011366;28;19932;-80
2023/01/06 00:06:55;;;;;;;;;;;10.20;99.90;;;;;;4994591;28;19926;-80
2023/01/06 00:09:21;;;;;;;;;;;10.20;99.90;;;;;;5010380;28;19984;-80
2023/01/06 00:11:46;;;;;;;;;;;10.20;99.90;;;;;;5008833;28;19980;-80
2023/01/06 00:14:12;;;;;;;;;;;10.20;99.90;;;;;;5012645;28;19926;-80
2023/01/06 00:16:37;;;;;;;;;;;10.20;99.90;;;;;;4994799;28;20439;-80
2023/01/06 00:19:03;;;;;;;;;;;10.30;99.90;;;;;;5011177;28;19937;-80
2023/01/06 00:21:28;;;;;;;;;;;10.20;99.90;;;;;;5010575;28;19980;-80
2023/01/06 00:23:54;;;;;;;;;;;10.20;99.90;;;;;;5011212;28;19957;-80
2023/01/06 00:26:20;;;;;;;;;;;10.30;99.90;;;;;;5011490;28;19984;-81
2023/01/06 00:28:46;;;;;;;;;;;10.30;99.90;;;;;;5012228;28;21081;-79
2023/01/06 00:31:12;;;;;;;;;;;10.30;99.90;;;;;;5016418;28;19925;-80
2023/01/06 00:33:39;;;;;;;;;;;10.30;99.90;;;;;;5030351;28;19932;-80
2023/01/06 00:36:05;;;;;;;;;;;10.30;99.90;;;;;;5014286;28;19947;-81
2023/01/06 00:38:30;;;;;;;;;;;10.30;99.90;;;;;;5012910;28;19930;-80
2023/01/06 00:40:56;;;;;;;;;;;10.30;99.90;;;;;;5012817;28;20071;-80
2023/01/06 00:43:22;;;;;;;;;;;10.30;99.90;;;;;;5002729;28;20307;-80
2023/01/06 00:45:47;;;;;;;;;;;10.30;99.90;;;;;;4983294;28;19929;-80
2023/01/06 00:48:13;;;;;;;;;;;10.40;99.90;;;;;;5015590;28;19929;-80
2023/01/06 00:50:38;;;;;;;;;;;10.30;99.90;;;;;;4998237;28;19925;-80
2023/01/06 00:53:04;;;;;;;;;;;10.30;99.90;;;;;;5016852;28;19948;-80
2023/01/06 00:55:29;;;;;;;;;;;10.30;99.90;;;;;;5014893;28;20274;-79
2023/01/06 00:57:55;;;;;;;;;;;10.30;99.90;;;;;;5030639;28;20222;-80
2023/01/06 01:00:21;;;;;;;;;;;10.30;99.90;;;;;;5011679;28;19925;-79
2023/01/06 01:02:46;;;;;;;;;;;10.30;99.90;;;;;;5014272;28;20319;-80
2023/01/06 01:05:12;;;;;;;;;;;10.20;99.90;;;;;;5011796;28;19936;-79
2023/01/06 01:07:39;;;;;;;;;;;10.20;99.90;;;;;;5013439;28;21867;-80
2023/01/06 01:10:05;;;;;;;;;;;10.20;99.90;;;;;;5013255;28;20424;-80
2023/01/06 01:12:31;;;;;;;;;;;10.20;99.90;;;;;;4997659;28;20352;-80
2023/01/06 01:14:56;;;;;;;;;;;10.20;99.90;;;;;;5001766;28;19925;-80
2023/01/06 01:17:26;;;;;;;;;;;10.20;99.90;;;;;;4985248;28;19925;-80
2023/01/06 01:19:54;;;;;;;;;;;10.20;99.90;;;;;;5018530;28;19971;-81
2023/01/06 01:22:20;;;;;;;;;;;10.20;99.90;;;;;;5019245;28;20377;-80
2023/01/06 01:24:45;;;;;;;;;;;10.10;99.90;;;;;;5019912;28;19930;-80
2023/01/06 01:27:12;;;;;;;;;;;10.10;99.90;;;;;;5002870;28;20008;-80
2023/01/06 01:29:37;;;;;;;;;;;10.10;99.90;;;;;;5019356;28;19936;-80
2023/01/06 01:32:03;;;;;;;;;;;10.10;99.90;;;;;;5018539;28;19993;-80
2023/01/06 01:34:28;;;;;;;;;;;10.10;99.90;;;;;;5005576;28;19934;-80
2023/01/06 01:36:55;;;;;;;;;;;10.20;99.90;;;;;;5019453;28;19929;-80
2023/01/06 01:39:22;;;;;;;;;;;10.10;99.90;;;;;;5024714;28;19980;-80
2023/01/06 01:41:48;;;;;;;;;;;10.20;99.90;;;;;;5031848;28;19977;-80
2023/01/06 01:44:33;;;;;;;;;;;10.10;99.90;;;;;;5019294;28;19926;-80
2023/01/06 01:46:58;;;;;;;;;;;10.20;99.90;;;;;;4996720;28;19977;-80
2023/01/06 01:49:25;;;;;;;;;;;10.20;99.90;;;;;;5013587;28;20037;-81
2023/01/06 01:51:52;;;;;;;;;;;10.10;99.90;;;;;;5013775;28;19948;-80
2023/01/06 01:54:23;;;;;;;;;;;10.10;99.90;;;;;;5028426;28;19953;-80
2023/01/06 01:56:53;;;;;;;;;;;10.10;99.90;;;;;;5013097;28;19932;-80
2023/01/06 01:59:20;;;;;;;;;;;10.10;99.90;;;;;;5013897;28;20372;-80
2023/01/06 02:01:46;;;;;;;;;;;10.10;99.90;;;;;;5012915;28;19972;-80
2023/01/06 02:04:13;;;;;;;;;;;10.10;99.90;;;;;;5012135;28;20459;-80
2023/01/06 02:06:39;;;;;;;;;;;10.10;99.90;;;;;;5014256;28;19956;-80
2023/01/06 02:09:08;;;;;;;;;;;10.10;99.90;;;;;;5011293;28;19980;-80
2023/01/06 02:11:35;;;;;;;;;;;10.10;99.90;;;;;;5008373;28;19925;-80
2023/01/06 02:14:11;;;;;;;;;;;10.10;99.90;;;;;;5015486;28;20282;-80
2023/01/06 02:16:36;;;;;;;;;;;10.10;99.90;;;;;;5011528;28;19952;-80
2023/01/06 02:19:05;;;;;;;;;;;10.10;99.90;;;;;;5012663;28;19932;-80
2023/01/06 02:21:40;;;;;;;;;;;10.10;99.90;;;;;;5010873;28;19985;-80
2023/01/06 02:24:08;;;;;;;;;;;10.10;99.90;;;;;;5013313;28;19933;-80
2023/01/06 02:26:37;;;;;;;;;;;10.10;99.90;;;;;;5027957;28;19940;-80
2023/01/06 02:29:05;;;;;;;;;;;10.10;99.90;;;;;;5010267;28;20224;-80
2023/01/06 02:31:50;;;;;;;;;;;10.10;99.90;;;;;;5009967;28;19925;-80
2023/01/06 02:34:22;;;;;;;;;;;10.10;99.90;;;;;;5012340;28;20293;-80
2023/01/06 02:37:07;;;;;;;;;;;10.10;99.90;;;;;;5008416;28;19940;-80
2023/01/06 02:39:38;;;;;;;;;;;10.10;99.90;;;;;;4993886;28;19926;-80
2023/01/06 02:42:07;;;;;;;;;;;10.10;99.90;;;;;;5007130;28;19932;-80
2023/01/06 02:44:42;;;;;;;;;;;10.10;99.90;;;;;;5012626;28;19925;-80
2023/01/06 02:47:14;;;;;;;;;;;10.10;99.90;;;;;;5014308;28;19935;-80
2023/01/06 02:49:45;;;;;;;;;;;10.10;99.90;;;;;;5000502;28;19929;-81
2023/01/06 02:52:11;;;;;;;;;;;10.10;99.90;;;;;;5014802;28;19964;-80
2023/01/06 02:54:39;;;;;;;;;;;10.10;99.90;;;;;;5016607;28;19925;-80
2023/01/06 02:57:11;;;;;;;;;;;10.10;99.90;;;;;;5011688;28;19934;-80
2023/01/06 02:59:38;;;;;;;;;;;10.20;99.90;;;;;;5010959;28;19926;-80
2023/01/06 03:02:04;;;;;;;;;;;10.20;99.90;;;;;;5009238;28;19932;-80
2023/01/06 03:04:32;;;;;;;;;;;10.20;99.90;;;;;;4995007;28;19930;-81
2023/01/06 03:07:00;;;;;;;;;;;10.20;99.90;;;;;;5011781;28;19929;-80
2023/01/06 03:09:33;;;;;;;;;;;10.20;99.90;;;;;;5011310;28;19984;-80
2023/01/06 03:12:01;;;;;;;;;;;10.20;99.90;;;;;;5011849;28;19929;-80
2023/01/06 03:14:30;;;;;;;;;;;10.20;99.90;;;;;;5012667;28;19929;-80
2023/01/06 03:16:56;;;;;;;;;;;10.20;99.90;;;;;;5018929;28;19933;-79
2023/01/06 03:19:22;;;;;;;;;;;10.20;99.90;;;;;;5018612;28;19929;-80
2023/01/06 03:21:48;;;;;;;;;;;10.20;99.90;;;;;;5018341;28;19929;-80
2023/01/06 03:24:14;;;;;;;;;;;10.20;99.90;;;;;;5020704;28;20372;-80
2023/01/06 03:26:41;;;;;;;;;;;10.10;99.90;;;;;;5017662;28;19925;-80
2023/01/06 03:29:09;;;;;;;;;;;10.20;99.90;;;;;;5000697;28;19926;-80
2023/01/06 03:31:53;;;;;;;;;;;10.20;99.90;;;;;;5013009;28;20272;-79
2023/01/06 03:34:22;;;;;;;;;;;10.20;99.90;;;;;;5023193;28;19960;-80
2023/01/06 03:36:47;;;;;;;;;;;10.20;99.90;;;;;;5009514;28;19971;-80
2023/01/06 03:39:16;;;;;;;;;;;10.20;99.90;;;;;;5010161;28;19975;-80
2023/01/06 03:44:42;;;;;;;;;;;10.20;99.90;;;;;;4976540;28;20019;-79
2023/01/06 03:47:19;;;;;;;;;;;10.20;99.90;;;;;;5008945;28;19953;-80
2023/01/06 03:49:51;;;;;;;;;;;10.20;99.90;;;;;;5021448;28;20587;-80
2023/01/06 03:52:17;;;;;;;;;;;10.10;99.90;;;;;;5009639;28;20027;-80
2023/01/06 03:54:51;;;;;;;;;;;10.10;99.90;;;;;;5011043;28;19929;-79
2023/01/06 03:57:22;;;;;;;;;;;10.10;99.90;;;;;;5009724;28;19929;-79
2023/01/06 03:59:56;;;;;;;;;;;10.10;99.90;;;;;;5011686;28;19929;-80
2023/01/06 04:02:21;;;;;;;;;;;10.10;99.90;;;;;;5011978;28;19937;-80
2023/01/06 04:05:05;;;;;;;;;;;10.10;99.90;;;;;;5012812;28;19926;-79
2023/01/06 04:07:31;;;;;;;;;;;10.10;99.90;;;;;;4997869;28;19930;-80
2023/01/06 04:09:57;;;;;;;;;;;10.10;99.90;;;;;;5015407;28;19936;-79
2023/01/06 04:12:37;;;;;;;;;;;10.10;99.90;;;;;;5017235;28;19929;-79
2023/01/06 04:15:10;;;;;;;;;;;10.10;99.90;;;;;;5018227;28;19933;-79
2023/01/06 04:17:40;;;;;;;;;;;10.10;99.90;;;;;;5012827;28;19933;-80
2023/01/06 04:20:07;;;;;;;;;;;10.10;99.90;;;;;;5014555;28;21025;-79
2023/01/06 04:22:32;;;;;;;;;;;10.10;99.90;;;;;;5015735;28;19936;-80
2023/01/06 04:24:58;;;;;;;;;;;10.10;99.90;;;;;;4999765;28;19925;-80
2023/01/06 04:27:24;;;;;;;;;;;10.10;99.90;;;;;;5015725;28;19964;-79
2023/01/06 04:29:49;;;;;;;;;;;10.10;99.90;;;;;;5014044;28;19929;-80
2023/01/06 04:32:15;;;;;;;;;;;10.10;99.90;;;;;;5013916;28;20561;-79
2023/01/06 04:34:40;;;;;;;;;;;10.10;99.90;;;;;;5011026;28;19933;-80
2023/01/06 04:37:06;;;;;;;;;;;10.10;99.90;;;;;;5029001;28;19965;-80
2023/01/06 04:39:31;;;;;;;;;;;10.10;99.90;;;;;;5010979;28;19929;-80
2023/01/06 04:41:57;;;;;;;;;;;10.10;99.90;;;;;;5013939;28;19925;-80
2023/01/06 04:44:23;;;;;;;;;;;10.20;99.90;;;;;;5031935;28;19930;-80
2023/01/06 04:46:48;;;;;;;;;;;10.10;99.90;;;;;;5029072;28;19960;-80
2023/01/06 04:49:14;;;;;;;;;;;10.10;99.90;;;;;;5015972;28;19925;-79
2023/01/06 04:51:39;;;;;;;;;;;10.20;99.90;;;;;;5012657;28;19979;-80
2023/01/06 04:54:05;;;;;;;;;;;10.20;99.90;;;;;;4998372;28;19960;-80
2023/01/06 04:56:30;;;;;;;;;;;10.20;99.90;;;;;;5013336;28;19933;-80
2023/01/06 04:58:56;;;;;;;;;;;10.20;99.90;;;;;;5013619;28;19976;-79
2023/01/06 05:01:22;;;;;;;;;;;10.20;99.90;;;;;;5013882;28;19936;-80
2023/01/06 05:03:48;;;;;;;;;;;10.20;99.90;;;;;;5029592;28;19926;-79
2023/01/06 05:06:14;;;;;;;;;;;10.20;99.90;;;;;;5014163;28;19925;-79
2023/01/06 05:08:40;;;;;;;;;;;10.20;99.90;;;;;;5013437;28;19952;-79
2023/01/06 05:11:11;;;;;;;;;;;10.20;99.90;;;;;;5012765;28;19934;-79
2023/01/06 05:13:36;;;;;;;;;;;10.30;99.90;;;;;;5012585;28;19925;-79
2023/01/06 05:16:09;;;;;;;;;;;10.20;99.90;;;;;;5031925;28;20411;-79
2023/01/06 05:18:35;;;;;;;;;;;10.20;99.90;;;;;;5036146;28;19961;-80
2023/01/06 05:21:01;;;;;;;;;;;10.30;99.90;;;;;;5001682;28;19944;-80
2023/01/06 05:23:26;;;;;;;;;;;10.40;99.90;;;;;;5018533;28;19929;-79
2023/01/06 05:25:52;;;;;;;;;;;10.40;99.90;;;;;;5019404;28;19926;-79
2023/01/06 05:28:18;;;;;;;;;;;10.40;99.90;;;;;;5035870;28;20377;-80
2023/01/06 05:30:44;;;;;;;;;;;10.40;99.90;;;;;;5035833;28;20028;-79
2023/01/06 05:33:09;;;;;;;;;;;10.50;99.90;;;;;;5018926;28;19925;-79
2023/01/06 05:35:35;;;;;;;;;;;10.40;99.90;;;;;;5019435;28;19968;-79
2023/01/06 05:38:01;;;;;;;;;;;10.40;99.90;;;;;;5020432;28;19973;-79
2023/01/06 05:40:27;;;;;;;;;;;10.40;99.90;;;;;;5019629;28;19932;-79
2023/01/06 05:42:56;;;;;;;;;;;10.40;99.90;;;;;;5019008;28;20388;-79
2023/01/06 05:45:22;;;;;;;;;;;10.40;99.90;;;;;;5016537;28;19929;-79
2023/01/06 05:47:47;;;;;;;;;;;10.40;99.90;;;;;;5016007;28;19975;-79
2023/01/06 05:50:13;;;;;;;;;;;10.40;99.90;;;;;;5013552;28;19933;-79
2023/01/06 05:52:38;;;;;;;;;;;10.40;99.90;;;;;;4997761;28;19981;-80
2023/01/06 05:55:04;;;;;;;;;;;10.40;99.90;;;;;;5012600;28;19925;-79
2023/01/06 05:57:34;;;;;;;;;;;10.40;99.90;;;;;;5013855;28;19933;-79
2023/01/06 05:59:59;;;;;;;;;;;10.40;99.90;;;;;;5014066;28;19961;-79
2023/01/06 06:02:25;;;;;;;;;;;10.30;99.90;;;;;;5012502;28;19925;-79
2023/01/06 06:04:50;;;;;;;;;;;10.40;99.90;;;;;;5013251;28;19985;-80
2023/01/06 06:07:16;;;;;;;;;;;10.40;99.90;;;;;;5016549;28;19925;-79
2023/01/06 06:09:41;;;;;;;;;;;10.40;99.90;;;;;;5018295;28;19925;-79
2023/01/06 06:12:07;;;;;;;;;;;10.40;99.90;;;;;;5015313;28;19929;-79
2023/01/06 06:14:32;;;;;;;;;;;10.30;99.90;;;;;;5014938;28;19943;-79
2023/01/06 06:16:58;;;;;;;;;;;10.30;99.90;;;;;;5013318;28;19997;-79
2023/01/06 06:19:24;;;;;;;;;;;10.30;99.90;;;;;;5012997;28;19932;-79
2023/01/06 06:21:49;;;;;;;;;;;10.30;99.90;;;;;;5009207;28;19971;-79
2023/01/06 06:24:15;;;;;;;;;;;10.30;99.90;;;;;;5013359;28;19929;-79
2023/01/06 06:26:40;;;;;;;;;;;10.30;99.90;;;;;;4992369;28;19940;-78
2023/01/06 06:29:06;;;;;;;;;;;10.20;99.90;;;;;;5013312;28;19929;-79
2023/01/06 06:31:32;;;;;;;;;;;10.20;99.90;;;;;;5012865;28;20020;-79
2023/01/06 06:33:58;;;;;;;;;;;10.20;99.90;;;;;;5010797;28;20023;-80
2023/01/06 06:36:24;;;;;;;;;;;10.20;99.90;;;;;;5012556;28;19926;-80
2023/01/06 06:38:51;;;;;;;;;;;10.20;99.90;;;;;;5013069;28;19934;-80
2023/01/06 06:41:17;;;;;;;;;;;10.10;99.90;;;;;;5026710;28;19941;-80
2023/01/06 06:43:43;;;;;;;;;;;10.10;99.90;;;;;;5010058;28;19926;-80
2023/01/06 06:46:09;;;;;;;;;;;10.00;99.90;;;;;;5013330;28;19925;-80
2023/01/06 06:48:34;;;;;;;;;;;10.00;99.90;;;;;;5012126;28;19925;-80
2023/01/06 06:51:01;;;;;;;;;;;10.00;99.90;;;;;;5014422;28;19930;-80
2023/01/06 06:53:27;;;;;;;;;;;9.90;99.90;;;;;;5010136;28;20027;-79
2023/01/06 06:55:53;;;;;;;;;;;9.80;99.90;;;;;;5007406;28;19934;-80
2023/01/06 06:58:19;;;;;;;;;;;9.80;99.90;;;;;;5010743;28;19925;-80
2023/01/06 07:00:44;;;;;;;;;;;9.80;99.90;;;;;;5011721;28;19979;-80
2023/01/06 07:03:10;;;;;;;;;;;9.80;99.90;;;;;;4993232;28;19935;-80
2023/01/06 07:05:35;;;;;;;;;;;9.80;99.90;;;;;;5028614;28;19929;-81
2023/01/06 07:08:01;;;;;;;;;;;9.80;99.90;;;;;;5007636;28;19961;-82
2023/01/06 07:10:26;;;;;;;;;;;9.80;99.90;;;;;;5012568;28;19926;-80
2023/01/06 07:12:52;;;;;;;;;;;9.70;99.90;;;;;;4997693;28;19926;-80
2023/01/06 07:15:18;;;;;;;;;;;9.80;99.90;;;;;;4994239;28;19930;-80
2023/01/06 07:17:43;;;;;;;;;;;9.70;99.90;;;;;;5033051;28;19933;-80
2023/01/06 07:20:09;;;;;;;;;;;9.80;99.90;;;;;;4996095;28;19981;-80
2023/01/06 07:22:38;;;;;;;;;;;9.80;99.90;;;;;;5030184;28;19926;-80
2023/01/06 07:25:04;;;;;;;;;;;9.80;99.90;;;;;;5017904;28;19925;-80
2023/01/06 07:27:30;;;;;;;;;;;9.80;99.90;;;;;;5001737;28;19930;-81
2023/01/06 07:29:56;;;;;;;;;;;9.80;99.90;;;;;;5000148;28;19929;-81
2023/01/06 07:32:21;;;;;;;;;;;9.80;99.90;;;;;;5017982;28;20484;-81
2023/01/06 07:34:47;;;;;;;;;;;9.80;99.90;;;;;;5001221;28;19925;-81
2023/01/06 07:37:12;;;;;;;;;;;9.80;99.90;;;;;;5003932;28;20017;-82
2023/01/06 07:39:38;;;;;;;;;;;9.80;99.90;;;;;;5016555;28;19925;-81
2023/01/06 07:42:03;;;;;;;;;;;9.80;99.90;;;;;;5013440;28;19984;-81
2023/01/06 07:44:29;;;;;;;;;;;9.80;99.90;;;;;;5015266;28;20024;-81
2023/01/06 07:46:54;;;;;;;;;;;9.90;99.90;;;;;;5013159;28;19929;-80
2023/01/06 07:49:20;;;;;;;;;;;9.90;99.90;;;;;;5011632;28;19940;-81
2023/01/06 07:51:45;;;;;;;;;;;9.90;99.90;;;;;;5010696;28;19961;-80
2023/01/06 07:54:11;;;;;;;;;;;9.90;99.90;;;;;;5026850;28;20481;-82
2023/01/06 07:56:36;;;;;;;;;;;9.90;99.90;;;;;;5008157;28;19926;-81
2023/01/06 07:59:02;;;;;;;;;;;9.90;99.90;;;;;;5010530;28;19936;-80
2023/01/06 08:01:28;;;;;;;;;;;9.90;99.90;;;;;;4996037;28;19926;-81
2023/01/06 08:03:53;;;;;;;;;;;9.90;99.90;;;;;;5009963;28;19944;-81
2023/01/06 08:06:19;;;;;;;;;;;9.90;99.90;;;;;;4980951;28;19952;-81
2023/01/06 08:08:44;;;;;;;;;;;10.00;99.90;;;;;;4978841;28;19929;-81
2023/01/06 08:11:12;;;;;;;;;;;10.00;99.90;;;;;;5009262;28;19930;-81
2023/01/06 08:13:38;;;;;;;;;;;9.90;99.90;;;;;;5011251;28;20364;-81
2023/01/06 08:16:08;;;;;;;;;;;10.00;99.90;;;;;;4981830;28;19933;-81
2023/01/06 08:18:33;;;;;;;;;;;10.00;99.90;;;;;;5017235;28;20017;-82
2023/01/06 08:21:03;;;;;;;;;;;10.00;99.90;;;;;;5035293;28;19996;-81
2023/01/06 08:23:29;;;;;;;;;;;9.90;99.90;;;;;;5016809;28;19976;-81
2023/01/06 08:26:06;;;;;;;;;;;9.90;99.90;;;;;;5018753;28;19925;-81
2023/01/06 08:28:32;;;;;;;;;;;9.80;99.90;;;;;;5024678;28;19972;-81
2023/01/06 08:30:58;;;;;;;;;;;9.80;99.90;;;;;;4999592;28;19925;-82
2023/01/06 08:33:26;;;;;;;;;;;9.70;99.90;;;;;;5007522;28;20206;-81
2023/01/06 08:35:57;;;;;;;;;;;9.60;99.90;;;;;;5000258;28;20325;-81
2023/01/06 08:38:22;;;;;;;;;;;9.50;99.90;;;;;;5007118;28;20330;-81
2023/01/06 08:40:50;;;;;;;;;;;9.40;99.90;;;;;;5028820;28;19968;-81
2023/01/06 08:43:15;;;;;;;;;;;9.40;99.90;;;;;;5015537;28;20016;-81
2023/01/06 08:45:41;;;;;;;;;;;9.30;99.90;;;;;;5016221;28;20502;-81
2023/01/06 08:48:07;;;;;;;;;;;9.30;99.90;;;;;;5015609;28;19929;-81
2023/01/06 08:50:32;;;;;;;;;;;9.30;99.90;;;;;;5001283;28;19937;-81
2023/01/06 08:52:58;;;;;;;;;;;9.40;99.90;;;;;;5019438;28;19926;-81
2023/01/06 08:55:23;;;;;;;;;;;9.30;99.90;;;;;;5020046;28;19968;-81
2023/01/06 08:57:49;;;;;;;;;;;9.40;99.90;;;;;;5001913;28;19930;-81
2023/01/06 09:00:15;;;;;;;;;;;9.40;99.90;;;;;;5028428;28;19930;-81
2023/01/06 09:02:40;;;;;;;;;;;9.50;99.90;;;;;;4976155;28;19981;-81
2023/01/06 09:05:06;;;;;;;;;;;9.50;99.90;;;;;;5012837;28;19929;-81
2023/01/06 09:07:32;;;;;;;;;;;9.60;99.90;;;;;;5015256;28;19980;-81
2023/01/06 09:09:57;;;;;;;;;;;9.70;99.90;;;;;;5015373;28;19925;-81
2023/01/06 09:12:23;;;;;;;;;;;9.80;99.90;;;;;;5014151;28;19936;-81
2023/01/06 09:14:48;;;;;;;;;;;9.90;99.90;;;;;;4995404;28;19925;-82
2023/01/06 09:17:14;;;;;;;;;;;10.00;99.90;;;;;;5010429;28;19953;-82
2023/01/06 09:19:39;;;;;;;;;;;10.00;99.90;;;;;;5014118;28;19925;-81
2023/01/06 09:22:06;;;;;;;;;;;10.00;99.90;;;;;;5011000;28;20325;-82
2023/01/06 09:24:31;;;;;;;;;;;10.10;99.90;;;;;;5014057;28;20251;-81
2023/01/06 09:26:57;;;;;;;;;;;10.20;99.90;;;;;;4993421;28;19975;-82
2023/01/06 09:29:22;;;;;;;;;;;10.20;99.90;;;;;;5013932;28;19929;-81
2023/01/06 09:31:48;;;;;;;;;;;10.30;99.90;;;;;;5013633;28;19925;-82
2023/01/06 09:34:14;;;;;;;;;;;10.40;99.90;;;;;;4999788;28;20470;-81
2023/01/06 09:36:39;;;;;;;;;;;10.70;99.90;;;;;;5015624;28;19984;-82
2023/01/06 09:39:05;;;;;;;;;;;11.00;99.90;;;;;;4995101;28;19932;-82
2023/01/06 09:41:34;;;;;;;;;;;11.20;99.90;;;;;;4998155;28;19935;-82
2023/01/06 09:44:13;;;;;;;;;;;11.50;99.90;;;;;;5012950;28;19952;-82
2023/01/06 09:46:41;;;;;;;;;;;11.60;99.90;;;;;;5009953;28;19926;-82
2023/01/06 09:49:07;;;;;;;;;;;11.70;99.90;;;;;;4996254;28;19934;-81
2023/01/06 09:51:33;;;;;;;;;;;11.70;99.90;;;;;;5011149;28;20499;-81
2023/01/06 09:54:04;;;;;;;;;;;11.70;99.90;;;;;;5011633;28;20055;-81
2023/01/06 09:56:30;;;;;;;;;;;11.90;99.90;;;;;;4996835;28;19925;-82
2023/01/06 09:59:07;;;;;;;;;;;11.90;99.90;;;;;;5010544;28;19952;-81
2023/01/06 10:01:38;;;;;;;;;;;11.90;99.90;;;;;;5027928;28;20375;-81
2023/01/06 10:04:04;;;;;;;;;;;11.90;99.90;;;;;;5013566;28;19926;-81
2023/01/06 10:06:29;;;;;;;;;;;11.70;99.90;;;;;;4997485;28;20332;-81
2023/01/06 10:09:14;;;;;;;;;;;11.30;99.90;;;;;;5013076;28;19936;-81
2023/01/06 10:11:49;;;;;;;;;;;11.00;99.90;;;;;;5013136;28;19926;-81
2023/01/06 10:14:14;;;;;;;;;;;10.80;99.90;;;;;;5013663;28;20521;-81
2023/01/06 10:16:52;;;;;;;;;;;10.60;99.90;;;;;;5013476;28;19929;-82
2023/01/06 10:19:29;;;;;;;;;;;10.40;99.90;;;;;;5013613;28;19971;-81
2023/01/06 10:22:24;;;;;;;;;;;10.30;99.90;;;;;;5025843;28;20440;-82
2023/01/06 10:24:56;;;;;;;;;;;10.20;99.90;;;;;;5004064;28;19948;-81
2023/01/06 10:27:22;;;;;;;;;;;10.20;99.90;;;;;;5016962;28;19944;-81
2023/01/06 10:29:47;;;;;;;;;;;10.10;99.90;;;;;;5016632;28;20004;-81
2023/01/06 10:32:15;;;;;;;;;;;10.10;99.90;;;;;;5013313;28;19926;-81
2023/01/06 10:34:42;;;;;;;;;;;10.10;99.90;;;;;;5018905;28;19932;-81
2023/01/06 10:37:26;;;;;;;;;;;10.10;99.90;;;;;;5016351;28;20004;-81
2023/01/06 10:39:59;;;;;;;;;;;10.10;99.90;;;;;;5015370;28;19929;-81
2023/01/06 10:43:02;;;;;;;;;;;10.00;99.90;;;;;;4998923;28;19936;-81
2023/01/06 10:45:30;;;;;;;;;;;10.00;99.90;;;;;;4999143;28;19949;-81
2023/01/06 10:47:56;;;;;;;;;;;10.00;99.90;;;;;;5016112;28;20000;-82
2023/01/06 10:50:22;;;;;;;;;;;10.10;99.90;;;;;;5015985;28;19932;-81
2023/01/06 10:52:48;;;;;;;;;;;10.10;99.90;;;;;;5014086;28;19952;-82
2023/01/06 10:55:33;;;;;;;;;;;10.00;99.90;;;;;;5014135;28;19932;-81
2023/01/06 10:58:06;;;;;;;;;;;10.10;99.90;;;;;;5016815;28;19980;-81
2023/01/06 11:00:32;;;;;;;;;;;10.10;99.90;;;;;;5009810;28;19932;-81
2023/01/06 11:03:02;;;;;;;;;;;10.10;99.90;;;;;;4992822;28;19929;-82
2023/01/06 11:05:29;;;;;;;;;;;10.10;99.90;;;;;;5013873;28;19940;-81
2023/01/06 11:07:55;;;;;;;;;;;10.10;99.90;;;;;;5014140;28;19941;-81
2023/01/06 11:10:30;;;;;;;;;;;10.10;99.90;;;;;;5012144;28;19929;-81
2023/01/06 11:12:57;;;;;;;;;;;10.10;99.90;;;;;;5016362;28;20105;-81
2023/01/06 11:15:23;;;;;;;;;;;10.10;99.90;;;;;;5030054;28;19932;-81
2023/01/06 11:17:49;;;;;;;;;;;10.10;99.90;;;;;;5032561;28;19930;-81
2023/01/06 11:20:15;;;;;;;;;;;10.10;99.90;;;;;;4996427;28;19932;-81
2023/01/06 11:22:41;;;;;;;;;;;10.10;99.90;;;;;;5002142;28;19925;-81
2023/01/06 11:25:19;;;;;;;;;;;10.10;99.90;;;;;;5028974;28;19929;-81
2023/01/06 11:27:45;;;;;;;;;;;10.10;99.90;;;;;;5012361;28;19930;-80
2023/01/06 11:30:21;;;;;;;;;;;10.10;99.90;;;;;;4995146;28;19925;-81
2023/01/06 11:32:46;;;;;;;;;;;10.20;99.90;;;;;;5027290;28;19936;-80
2023/01/06 11:35:18;;;;;;;;;;;10.20;99.90;;;;;;5011826;28;19993;-79
2023/01/06 11:37:44;;;;;;;;;;;10.20;99.90;;;;;;5013762;28;19967;-82
2023/01/06 11:40:12;;;;;;;;;;;10.20;99.90;;;;;;5030175;28;19929;-82
2023/01/06 11:42:38;;;;;;;;;;;10.20;99.90;;;;;;5016293;28;19933;-81
2023/01/06 11:45:04;;;;;;;;;;;10.20;99.90;;;;;;5016223;28;20025;-81
2023/01/06 11:47:30;;;;;;;;;;;10.20;99.90;;;;;;5016715;28;19925;-82
2023/01/06 11:49:57;;;;;;;;;;;10.20;99.90;;;;;;5016491;28;19933;-82
2023/01/06 11:52:23;;;;;;;;;;;10.20;99.90;;;;;;5014986;28;19925;-81
2023/01/06 11:54:55;;;;;;;;;;;10.20;99.90;;;;;;5030922;28;19953;-81
2023/01/06 11:57:24;;;;;;;;;;;10.30;99.90;;;;;;5015218;28;20013;-82
2023/01/06 11:59:49;;;;;;;;;;;10.30;99.90;;;;;;5013279;28;19975;-83
2023/01/06 12:02:21;;;;;;;;;;;10.40;99.90;;;;;;5012954;28;19929;-83
2023/01/06 12:04:49;;;;;;;;;;;10.40;99.90;;;;;;5016438;28;19932;-82
2023/01/06 12:07:28;;;;;;;;;;;10.40;99.90;;;;;;5015386;28;19937;-82
2023/01/06 12:09:55;;;;;;;;;;;10.40;99.90;;;;;;5030225;28;19925;-83
2023/01/06 12:12:24;;;;;;;;;;;10.30;99.90;;;;;;5014769;28;19929;-84
2023/01/06 12:14:50;;;;;;;;;;;10.30;99.90;;;;;;5028500;28;19931;-83
2023/01/06 12:17:31;;;;;;;;;;;10.20;99.90;;;;;;5031954;28;20043;-83
2023/01/06 12:20:15;;;;;;;;;;;10.20;99.90;;;;;;5015949;28;19951;-83
2023/01/06 12:23:00;;;;;;;;;;;10.20;99.90;;;;;;5003503;28;19925;-83
2023/01/06 12:25:28;;;;;;;;;;;10.10;99.90;;;;;;5012380;28;19933;-83
2023/01/06 12:27:59;;;;;;;;;;;10.10;99.90;;;;;;5012769;28;19925;-82
2023/01/06 12:30:28;;;;;;;;;;;10.10;99.90;;;;;;5018839;28;19925;-83
2023/01/06 12:32:57;;;;;;;;;;;10.10;99.90;;;;;;5020262;28;19933;-83
2023/01/06 12:35:25;;;;;;;;;;;10.10;99.90;;;;;;5020843;28;20476;-83
2023/01/06 12:37:56;;;;;;;;;;;10.10;99.90;;;;;;5034767;28;19953;-83
2023/01/06 12:40:22;;;;;;;;;;;10.10;99.90;;;;;;5019019;28;19925;-83
2023/01/06 12:42:50;;;;;;;;;;;10.20;99.90;;;;;;5020291;28;19952;-82
2023/01/06 12:45:35;;;;;;;;;;;10.20;99.90;;;;;;5016302;28;19939;-81
2023/01/06 12:48:03;;;;;;;;;;;10.20;99.90;;;;;;5003152;28;19926;-82
2023/01/06 12:50:32;;;;;;;;;;;10.20;99.90;;;;;;5022044;28;19948;-81
2023/01/06 12:53:09;;;;;;;;;;;10.30;99.90;;;;;;5020033;28;19933;-81
2023/01/06 12:55:45;;;;;;;;;;;10.30;99.90;;;;;;5019111;28;19925;-81
2023/01/06 12:58:11;;;;;;;;;;;10.30;99.90;;;;;;5017054;28;19926;-82
2023/01/06 13:00:48;;;;;;;;;;;10.30;99.90;;;;;;5016013;28;19929;-82
2023/01/06 13:03:29;;;;;;;;;;;10.20;99.90;;;;;;5034049;28;19926;-81
2023/01/06 13:06:13;;;;;;;;;;;10.20;99.90;;;;;;5021371;28;19932;-81
2023/01/06 13:08:41;;;;;;;;;;;10.20;99.90;;;;;;5018339;28;19980;-82
2023/01/06 13:11:07;;;;;;;;;;;10.10;99.90;;;;;;5018426;28;19972;-82
2023/01/06 13:13:50;;;;;;;;;;;10.10;99.90;;;;;;5019745;28;19925;-81
2023/01/06 13:16:19;;;;;;;;;;;10.10;99.90;;;;;;5033882;28;19957;-81
2023/01/06 13:19:05;;;;;;;;;;;10.00;99.90;;;;;;5019499;28;19929;-81
2023/01/06 13:21:32;;;;;;;;;;;10.00;99.90;;;;;;5006662;28;19936;-81
2023/01/06 13:23:57;;;;;;;;;;;10.00;99.90;;;;;;5019470;28;19964;-81
2023/01/06 13:26:38;;;;;;;;;;;9.90;99.90;;;;;;5021056;28;19932;-81
2023/01/06 13:29:10;;;;;;;;;;;9.90;99.90;;;;;;5016659;28;19926;-81
2023/01/06 13:31:50;;;;;;;;;;;9.90;99.90;;;;;;5009372;28;19932;-81
2023/01/06 13:34:15;;;;;;;;;;;9.80;99.90;;;;;;5002168;28;20193;-81
2023/01/06 13:36:52;;;;;;;;;;;9.80;99.90;;;;;;5017654;28;19930;-81
2023/01/06 13:39:21;;;;;;;;;;;9.80;99.90;;;;;;5022027;28;19932;-82
2023/01/06 13:41:48;;;;;;;;;;;9.70;99.90;;;;;;5015150;28;20434;-81
2023/01/06 13:44:16;;;;;;;;;;;9.70;99.90;;;;;;5020243;28;19968;-81
2023/01/06 13:46:42;;;;;;;;;;;9.70;99.90;;;;;;5013144;28;20277;-82
2023/01/06 13:49:09;;;;;;;;;;;9.70;99.90;;;;;;5018605;28;19948;-82
2023/01/06 13:51:36;;;;;;;;;;;9.70;99.90;;;;;;5033837;28;20041;-81
2023/01/06 13:54:02;;;;;;;;;;;9.70;99.90;;;;;;5019281;28;20041;-81
2023/01/06 13:56:29;;;;;;;;;;;9.60;99.90;;;;;;5017169;28;19929;-81
2023/01/06 13:59:16;;;;;;;;;;;9.60;99.90;;;;;;5020432;28;19929;-81
2023/01/06 14:01:41;;;;;;;;;;;9.60;99.90;;;;;;5017083;28;19966;-81
2023/01/06 14:04:26;;;;;;;;;;;9.60;99.90;;;;;;5010921;28;19925;-81
2023/01/06 14:06:51;;;;;;;;;;;9.60;99.90;;;;;;5014497;28;19925;-82
2023/01/06 14:09:17;;;;;;;;;;;9.60;99.90;;;;;;5017651;28;20039;-74
2023/01/06 14:11:43;;;;;;;;;;;9.60;99.90;;;;;;5014886;28;19993;-77
2023/01/06 14:14:28;;;;;;;;;;;9.50;99.90;;;;;;5033650;28;19983;-79
2023/01/06 14:16:54;;;;;;;;;;;9.50;99.90;;;;;;5008448;28;19933;-79
2023/01/06 14:19:25;;;;;;;;;;;9.50;99.90;;;;;;5017135;28;19929;-79
2023/01/06 14:21:53;;;;;;;;;;;9.50;99.90;;;;;;5016732;28;19925;-79
2023/01/06 14:24:18;;;;;;;;;;;9.40;99.90;;;;;;5015572;28;19925;-79
2023/01/06 14:26:49;;;;;;;;;;;9.40;99.90;;;;;;5014800;28;20052;-79
2023/01/06 14:29:33;;;;;;;;;;;9.40;99.90;;;;;;5019003;28;19941;-79
2023/01/06 14:31:59;;;;;;;;;;;9.40;99.90;;;;;;5031848;28;19929;-79